Time,TemperatureF,DewpointF,PressureIn,WindDirection,WindDirectionDegrees,WindSpeedMPH,WindSpeedGustMPH,Humidity,HourlyPrecipIn,Conditions,Clouds,dailyrainin,SolarRadiationWatts/m^2,SoftwareType,DateUTC
2013-05-27 00:01:00,36.0,35.0,-100.00,SSE,156,4.0,15.0,98,0.13,,,-99.99,0.000000,,2013-05-27 06:01:00,
2013-05-27 00:32:00,36.0,35.0,-100.00,NNE,15,3.0,5.0,98,0.01,,,-99.99,0.000000,,2013-05-27 06:32:00,
2013-05-27 00:42:00,36.0,35.0,-100.00,NNE,15,3.0,5.0,98,0.01,,,-99.99,0.000000,,2013-05-27 06:42:00,
2013-05-27 00:52:00,36.0,35.0,-100.00,NNE,15,3.0,5.0,98,0.01,,,-99.99,0.000000,,2013-05-27 06:52:00,
2013-05-27 01:01:00,36.0,35.0,-100.00,NNE,15,3.0,5.0,98,0.01,,,-99.99,0.000000,,2013-05-27 07:01:00,
2013-05-27 01:32:00,36.0,35.0,-100.00,ESE,114,4.0,5.0,97,0.00,,,0.32,0.000000,,2013-05-27 07:32:00,
2013-05-27 01:42:00,36.0,35.0,-100.00,ESE,114,4.0,5.0,97,0.00,,,0.32,0.000000,,2013-05-27 07:42:00,
2013-05-27 01:52:00,36.0,35.0,-100.00,ESE,114,4.0,5.0,97,0.00,,,0.32,0.000000,,2013-05-27 07:52:00,
2013-05-27 02:02:00,36.0,35.0,-100.00,ESE,114,4.0,5.0,97,0.00,,,0.32,0.000000,,2013-05-27 08:02:00,
2013-05-27 02:33:00,36.0,35.0,-100.00,NNW,341,4.0,6.0,97,0.00,,,0.32,0.000000,,2013-05-27 08:33:00,
2013-05-27 02:42:00,36.0,35.0,-100.00,NNW,341,4.0,6.0,97,0.00,,,0.32,0.000000,,2013-05-27 08:42:00,
2013-05-27 02:52:00,36.0,35.0,-100.00,NNW,341,4.0,6.0,97,0.00,,,0.32,0.000000,,2013-05-27 08:52:00,
2013-05-27 03:02:00,36.0,35.0,-100.00,NNW,341,4.0,6.0,97,0.00,,,0.32,0.000000,,2013-05-27 09:02:00,
2013-05-27 03:33:00,36.0,35.0,-100.00,NW,326,6.0,9.0,96,0.00,,,0.32,0.000000,,2013-05-27 09:33:00,
2013-05-27 03:42:00,36.0,35.0,-100.00,NW,326,6.0,9.0,96,0.00,,,0.32,0.000000,,2013-05-27 09:42:00,
2013-05-27 03:53:00,36.0,35.0,-100.00,NW,326,6.0,9.0,96,0.00,,,0.32,0.000000,,2013-05-27 09:53:00,
2013-05-27 04:02:00,36.0,35.0,-100.00,NW,326,6.0,9.0,96,0.00,,,0.32,0.000000,,2013-05-27 10:02:00,
2013-05-27 04:32:00,36.0,35.0,-100.00,SSE,168,2.0,6.0,96,0.00,,,0.32,0.000000,,2013-05-27 10:32:00,
2013-05-27 04:42:00,36.0,35.0,-100.00,SSE,168,2.0,6.0,96,0.00,,,0.32,0.000000,,2013-05-27 10:42:00,
2013-05-27 04:52:00,36.0,35.0,-100.00,SSE,168,2.0,6.0,96,0.00,,,0.32,0.000000,,2013-05-27 10:52:00,
2013-05-27 05:02:00,36.0,35.0,-100.00,SSE,168,2.0,6.0,96,0.00,,,0.32,0.000000,,2013-05-27 11:02:00,
2013-05-27 05:32:00,37.0,36.0,-100.00,South,178,4.0,6.0,95,0.00,,,0.32,0.000000,,2013-05-27 11:32:00,
2013-05-27 05:42:00,37.0,36.0,-100.00,South,178,4.0,6.0,95,0.00,,,0.32,0.000000,,2013-05-27 11:42:00,
2013-05-27 05:52:00,37.0,36.0,-100.00,South,178,4.0,6.0,95,0.00,,,0.32,0.000000,,2013-05-27 11:52:00,
2013-05-27 06:01:00,37.0,36.0,-100.00,South,178,4.0,6.0,95,0.00,,,0.32,0.000000,,2013-05-27 12:01:00,
2013-05-27 06:32:00,37.0,35.0,-100.00,SW,225,6.0,7.0,92,0.00,,,0.32,0.000000,,2013-05-27 12:32:00,
2013-05-27 06:42:00,37.0,35.0,-100.00,SW,225,6.0,7.0,92,0.00,,,0.32,0.000000,,2013-05-27 12:42:00,
2013-05-27 06:52:00,37.0,35.0,-100.00,SW,225,6.0,7.0,92,0.00,,,0.32,0.000000,,2013-05-27 12:52:00,
2013-05-27 07:01:00,37.0,35.0,-100.00,SW,225,6.0,7.0,92,0.00,,,0.32,0.000000,,2013-05-27 13:01:00,
2013-05-27 07:32:00,37.0,35.0,-100.00,NW,320,5.0,10.0,93,0.00,,,0.32,11.000000,,2013-05-27 13:32:00,
2013-05-27 07:42:00,37.0,35.0,-100.00,NW,320,5.0,10.0,93,0.00,,,0.32,11.000000,,2013-05-27 13:42:00,
2013-05-27 07:52:00,37.0,35.0,-100.00,NW,320,5.0,10.0,93,0.00,,,0.32,11.000000,,2013-05-27 13:52:00,
2013-05-27 08:01:00,37.0,35.0,-100.00,NW,320,5.0,10.0,93,0.00,,,0.32,11.000000,,2013-05-27 14:01:00,
2013-05-27 08:32:00,39.0,37.0,-100.00,SW,234,4.0,7.0,91,0.00,,,0.32,89.000000,,2013-05-27 14:32:00,
2013-05-27 08:42:00,39.0,37.0,-100.00,SW,234,4.0,7.0,91,0.00,,,0.32,89.000000,,2013-05-27 14:42:00,
2013-05-27 08:52:00,39.0,37.0,-100.00,SW,234,4.0,7.0,91,0.00,,,0.32,89.000000,,2013-05-27 14:52:00,
2013-05-27 09:01:00,39.0,37.0,-100.00,SW,234,4.0,7.0,91,0.00,,,0.32,89.000000,,2013-05-27 15:01:00,
2013-05-27 09:33:00,39.0,37.0,-100.00,SW,215,5.0,7.0,93,0.00,,,0.32,161.000000,,2013-05-27 15:33:00,
2013-05-27 09:43:00,39.0,37.0,-100.00,SW,215,5.0,7.0,93,0.00,,,0.32,161.000000,,2013-05-27 15:43:00,
2013-05-27 09:53:00,39.0,37.0,-100.00,SW,215,5.0,7.0,93,0.00,,,0.32,161.000000,,2013-05-27 15:53:00,
2013-05-27 10:02:00,39.0,37.0,-100.00,SW,215,5.0,7.0,93,0.00,,,0.32,161.000000,,2013-05-27 16:02:00,
2013-05-27 10:33:00,41.0,37.0,-100.00,SW,229,5.0,8.0,85,0.00,,,0.32,232.000000,,2013-05-27 16:33:00,
2013-05-27 10:42:00,41.0,37.0,-100.00,SW,229,5.0,8.0,85,0.00,,,0.32,232.000000,,2013-05-27 16:42:00,
2013-05-27 10:52:00,41.0,37.0,-100.00,SW,229,5.0,8.0,85,0.00,,,0.32,232.000000,,2013-05-27 16:52:00,
2013-05-27 11:02:00,41.0,37.0,-100.00,SW,229,5.0,8.0,85,0.00,,,0.32,232.000000,,2013-05-27 17:02:00,
2013-05-27 11:32:00,42.0,38.0,-100.00,SSW,200,6.0,9.0,86,0.00,,,0.32,247.000000,,2013-05-27 17:32:00,
2013-05-27 11:43:00,42.0,38.0,-100.00,SSW,200,6.0,9.0,86,0.00,,,0.32,247.000000,,2013-05-27 17:43:00,
2013-05-27 11:52:00,42.0,38.0,-100.00,SSW,200,6.0,9.0,86,0.00,,,0.32,247.000000,,2013-05-27 17:52:00,
2013-05-27 12:02:00,42.0,38.0,-100.00,SSW,200,6.0,9.0,86,0.00,,,0.32,247.000000,,2013-05-27 18:02:00,
2013-05-27 12:32:00,45.0,35.0,-100.00,South,183,4.0,11.0,69,0.00,,,0.32,375.000000,,2013-05-27 18:32:00,
2013-05-27 12:42:00,45.0,35.0,-100.00,South,183,4.0,11.0,69,0.00,,,0.32,375.000000,,2013-05-27 18:42:00,
2013-05-27 12:52:00,45.0,35.0,-100.00,South,183,4.0,11.0,69,0.00,,,0.32,375.000000,,2013-05-27 18:52:00,
2013-05-27 13:01:00,45.0,35.0,-100.00,South,183,4.0,11.0,69,0.00,,,0.32,375.000000,,2013-05-27 19:01:00,
2013-05-27 13:32:00,49.0,37.0,-100.00,NW,310,6.0,10.0,63,0.00,,,0.30,623.000000,,2013-05-27 19:32:00,
2013-05-27 13:42:00,49.0,37.0,-100.00,NW,310,6.0,10.0,63,0.00,,,0.30,623.000000,,2013-05-27 19:42:00,
2013-05-27 13:52:00,49.0,37.0,-100.00,NW,310,6.0,10.0,63,0.00,,,0.30,623.000000,,2013-05-27 19:52:00,
2013-05-27 14:01:00,49.0,37.0,-100.00,NW,310,6.0,10.0,63,0.00,,,0.30,623.000000,,2013-05-27 20:01:00,
2013-05-27 14:32:00,50.0,35.0,-100.00,NNW,338,3.0,11.0,57,0.00,,,0.30,616.000000,,2013-05-27 20:32:00,
2013-05-27 14:42:00,50.0,35.0,-100.00,NNW,338,3.0,11.0,57,0.00,,,0.30,616.000000,,2013-05-27 20:42:00,
2013-05-27 14:52:00,50.0,35.0,-100.00,NNW,338,3.0,11.0,57,0.00,,,0.30,616.000000,,2013-05-27 20:52:00,
2013-05-27 15:01:00,50.0,35.0,-100.00,NNW,338,3.0,11.0,57,0.00,,,0.30,616.000000,,2013-05-27 21:01:00,
2013-05-27 15:33:00,46.0,36.0,-100.00,South,180,10.0,20.0,69,0.00,,,0.30,253.000000,,2013-05-27 21:33:00,
2013-05-27 15:43:00,46.0,36.0,-100.00,South,180,10.0,20.0,69,0.00,,,0.30,253.000000,,2013-05-27 21:43:00,
2013-05-27 15:53:00,46.0,36.0,-100.00,South,180,10.0,20.0,69,0.00,,,0.30,253.000000,,2013-05-27 21:53:00,
2013-05-27 16:02:00,46.0,36.0,-100.00,South,180,10.0,20.0,69,0.00,,,0.30,253.000000,,2013-05-27 22:02:00,
2013-05-27 16:33:00,48.0,36.0,-100.00,SW,231,2.0,15.0,63,0.00,,,0.28,441.000000,,2013-05-27 22:33:00,
2013-05-27 16:42:00,48.0,36.0,-100.00,SW,231,2.0,15.0,63,0.00,,,0.28,441.000000,,2013-05-27 22:42:00,
2013-05-27 16:53:00,48.0,36.0,-100.00,SW,231,2.0,15.0,63,0.00,,,0.28,441.000000,,2013-05-27 22:53:00,
2013-05-27 17:02:00,48.0,36.0,-100.00,SW,231,2.0,15.0,63,0.00,,,0.28,441.000000,,2013-05-27 23:02:00,
2013-05-27 17:32:00,51.0,36.0,-100.00,NNW,340,4.0,7.0,57,0.00,,,0.20,534.000000,,2013-05-27 23:32:00,
2013-05-27 17:42:00,51.0,36.0,-100.00,NNW,340,4.0,7.0,57,0.00,,,0.20,534.000000,,2013-05-27 23:42:00,
2013-05-27 17:52:00,51.0,36.0,-100.00,NNW,340,4.0,7.0,57,0.00,,,0.20,534.000000,,2013-05-27 23:52:00,
2013-05-27 18:01:00,51.0,36.0,-100.00,NNW,340,4.0,7.0,57,0.00,,,0.20,534.000000,,2013-05-28 00:01:00,
2013-05-27 18:32:00,51.0,40.0,-100.00,NNE,28,4.0,7.0,66,0.01,,,0.17,328.000000,,2013-05-28 00:32:00,
2013-05-27 18:42:00,51.0,40.0,-100.00,NNE,28,4.0,7.0,66,0.01,,,0.17,328.000000,,2013-05-28 00:42:00,
2013-05-27 18:52:00,51.0,40.0,-100.00,NNE,28,4.0,7.0,66,0.01,,,0.17,328.000000,,2013-05-28 00:52:00,
2013-05-27 19:01:00,51.0,40.0,-100.00,NNE,28,4.0,7.0,66,0.01,,,0.17,328.000000,,2013-05-28 01:01:00,
2013-05-27 19:32:00,52.0,39.0,-100.00,WNW,295,3.0,7.0,60,0.00,,,0.17,299.000000,,2013-05-28 01:32:00,
2013-05-27 19:42:00,52.0,39.0,-100.00,WNW,295,3.0,7.0,60,0.00,,,0.17,299.000000,,2013-05-28 01:42:00,
2013-05-27 19:52:00,52.0,39.0,-100.00,WNW,295,3.0,7.0,60,0.00,,,0.17,299.000000,,2013-05-28 01:52:00,
2013-05-27 20:02:00,52.0,39.0,-100.00,WNW,295,3.0,7.0,60,0.00,,,0.17,299.000000,,2013-05-28 02:02:00,
2013-05-27 20:32:00,48.0,36.0,-100.00,West,266,4.0,7.0,62,0.00,,,0.17,89.000000,,2013-05-28 02:32:00,
2013-05-27 20:42:00,48.0,36.0,-100.00,West,266,4.0,7.0,62,0.00,,,0.17,89.000000,,2013-05-28 02:42:00,
2013-05-27 20:52:00,48.0,36.0,-100.00,West,266,4.0,7.0,62,0.00,,,0.17,89.000000,,2013-05-28 02:52:00,
2013-05-27 21:01:00,48.0,36.0,-100.00,West,266,4.0,7.0,62,0.00,,,0.17,89.000000,,2013-05-28 03:01:00,
2013-05-27 21:33:00,45.0,38.0,-100.00,WSW,258,5.0,19.0,76,0.01,,,0.18,15.000000,,2013-05-28 03:33:00,
2013-05-27 21:43:00,45.0,38.0,-100.00,WSW,258,5.0,19.0,76,0.01,,,0.18,15.000000,,2013-05-28 03:43:00,
2013-05-27 21:53:00,45.0,38.0,-100.00,WSW,258,5.0,19.0,76,0.01,,,0.18,15.000000,,2013-05-28 03:53:00,
2013-05-27 22:02:00,45.0,38.0,-100.00,WSW,258,5.0,19.0,76,0.01,,,0.18,15.000000,,2013-05-28 04:02:00,
2013-05-27 22:33:00,45.0,37.0,-100.00,SSW,211,3.0,8.0,73,0.00,,,0.16,0.000000,,2013-05-28 04:33:00,
2013-05-27 22:43:00,45.0,37.0,-100.00,SSW,211,3.0,8.0,73,0.00,,,0.16,0.000000,,2013-05-28 04:43:00,
2013-05-27 22:52:00,45.0,37.0,-100.00,SSW,211,3.0,8.0,73,0.00,,,0.16,0.000000,,2013-05-28 04:52:00,
2013-05-27 23:02:00,45.0,37.0,-100.00,SSW,211,3.0,8.0,73,0.00,,,0.16,0.000000,,2013-05-28 05:02:00,
2013-05-27 23:33:00,38.0,37.0,-100.00,SSW,207,15.0,23.0,98,0.04,,,0.07,0.000000,,2013-05-28 05:33:00,
2013-05-27 23:42:00,38.0,37.0,-100.00,SSW,207,15.0,23.0,98,0.04,,,0.07,0.000000,,2013-05-28 05:42:00,
2013-05-27 23:52:00,38.0,37.0,-100.00,SSW,207,15.0,23.0,98,0.04,,,0.07,0.000000,,2013-05-28 05:52:00,